sensor_id;sensor_type;location;lat;lon;timestamp;P1;durP1;ratioP1;P2;durP2;ratioP2
46377;SDS011;32083;47.360;9.650;2023-02-15T00:02:00;179.13;;;42.83;;
46377;SDS011;32083;47.360;9.650;2023-02-15T00:04:51;211.80;;;41.25;;
46377;SDS011;32083;47.360;9.650;2023-02-15T00:07:18;381.42;;;80.20;;
46377;SDS011;32083;47.360;9.650;2023-02-15T00:09:48;224.27;;;41.05;;
46377;SDS011;32083;47.360;9.650;2023-02-15T00:12:16;241.20;;;43.95;;
46377;SDS011;32083;47.360;9.650;2023-02-15T00:14:45;309.90;;;46.42;;
46377;SDS011;32083;47.360;9.650;2023-02-15T00:17:15;203.73;;;40.50;;
46377;SDS011;32083;47.360;9.650;2023-02-15T00:22:06;249.02;;;42.30;;
46377;SDS011;32083;47.360;9.650;2023-02-15T00:24:33;242.82;;;41.35;;
46377;SDS011;32083;47.360;9.650;2023-02-15T00:27:02;309.95;;;52.28;;
46377;SDS011;32083;47.360;9.650;2023-02-15T00:29:30;255.13;;;46.45;;
46377;SDS011;32083;47.360;9.650;2023-02-15T00:32:06;150.20;;;28.70;;
46377;SDS011;32083;47.360;9.650;2023-02-15T00:34:35;125.13;;;27.27;;
46377;SDS011;32083;47.360;9.650;2023-02-15T00:37:02;90.00;;;24.35;;
46377;SDS011;32083;47.360;9.650;2023-02-15T00:39:30;240.50;;;39.55;;
46377;SDS011;32083;47.360;9.650;2023-02-15T00:42:02;42.33;;;19.30;;
46377;SDS011;32083;47.360;9.650;2023-02-15T00:44:33;112.63;;;25.52;;
46377;SDS011;32083;47.360;9.650;2023-02-15T00:46:59;118.55;;;26.05;;
46377;SDS011;32083;47.360;9.650;2023-02-15T00:49:25;125.07;;;28.40;;
46377;SDS011;32083;47.360;9.650;2023-02-15T00:51:52;210.88;;;40.08;;
46377;SDS011;32083;47.360;9.650;2023-02-15T00:54:24;227.07;;;40.03;;
46377;SDS011;32083;47.360;9.650;2023-02-15T00:56:50;274.63;;;48.38;;
46377;SDS011;32083;47.360;9.650;2023-02-15T00:59:17;124.13;;;25.23;;
46377;SDS011;32083;47.360;9.650;2023-02-15T01:01:49;283.27;;;46.70;;
46377;SDS011;32083;47.360;9.650;2023-02-15T01:04:22;263.33;;;45.40;;
46377;SDS011;32083;47.360;9.650;2023-02-15T01:06:47;222.40;;;41.58;;
46377;SDS011;32083;47.360;9.650;2023-02-15T01:09:17;88.30;;;25.23;;
46377;SDS011;32083;47.360;9.650;2023-02-15T01:11:44;335.10;;;50.40;;
46377;SDS011;32083;47.360;9.650;2023-02-15T01:14:11;187.82;;;37.58;;
46377;SDS011;32083;47.360;9.650;2023-02-15T01:16:41;246.13;;;46.15;;
46377;SDS011;32083;47.360;9.650;2023-02-15T01:19:07;276.20;;;50.92;;
46377;SDS011;32083;47.360;9.650;2023-02-15T01:21:33;350.95;;;60.03;;
46377;SDS011;32083;47.360;9.650;2023-02-15T01:23:59;288.42;;;54.45;;
46377;SDS011;32083;47.360;9.650;2023-02-15T01:26:26;253.00;;;44.17;;
46377;SDS011;32083;47.360;9.650;2023-02-15T01:28:56;260.15;;;51.50;;
46377;SDS011;32083;47.360;9.650;2023-02-15T01:31:22;224.75;;;48.63;;
46377;SDS011;32083;47.360;9.650;2023-02-15T01:33:50;275.65;;;48.42;;
46377;SDS011;32083;47.360;9.650;2023-02-15T01:36:17;271.00;;;55.08;;
46377;SDS011;32083;47.360;9.650;2023-02-15T01:38:43;175.55;;;46.03;;
46377;SDS011;32083;47.360;9.650;2023-02-15T01:41:10;227.73;;;43.53;;
46377;SDS011;32083;47.360;9.650;2023-02-15T01:43:52;129.52;;;35.58;;
46377;SDS011;32083;47.360;9.650;2023-02-15T01:46:37;185.48;;;39.10;;
46377;SDS011;32083;47.360;9.650;2023-02-15T01:49:14;179.00;;;39.25;;
46377;SDS011;32083;47.360;9.650;2023-02-15T01:51:43;305.27;;;46.90;;
46377;SDS011;32083;47.360;9.650;2023-02-15T01:54:22;274.40;;;50.35;;
46377;SDS011;32083;47.360;9.650;2023-02-15T01:56:53;278.80;;;51.33;;
46377;SDS011;32083;47.360;9.650;2023-02-15T01:59:24;314.85;;;55.42;;
46377;SDS011;32083;47.360;9.650;2023-02-15T02:01:51;194.95;;;42.35;;
46377;SDS011;32083;47.360;9.650;2023-02-15T02:07:10;254.80;;;53.67;;
46377;SDS011;32083;47.360;9.650;2023-02-15T02:09:41;148.57;;;38.78;;
46377;SDS011;32083;47.360;9.650;2023-02-15T02:12:08;255.15;;;44.17;;
46377;SDS011;32083;47.360;9.650;2023-02-15T02:14:36;101.78;;;30.58;;
46377;SDS011;32083;47.360;9.650;2023-02-15T02:22:46;196.43;;;40.40;;
46377;SDS011;32083;47.360;9.650;2023-02-15T02:34:32;81.70;;;28.90;;
46377;SDS011;32083;47.360;9.650;2023-02-15T02:40:20;171.25;;;41.30;;
46377;SDS011;32083;47.360;9.650;2023-02-15T02:43:31;181.60;;;37.15;;
46377;SDS011;32083;47.360;9.650;2023-02-15T02:46:38;275.27;;;51.15;;
46377;SDS011;32083;47.360;9.650;2023-02-15T02:49:16;357.95;;;59.70;;
46377;SDS011;32083;47.360;9.650;2023-02-15T02:52:01;346.85;;;59.47;;
46377;SDS011;32083;47.360;9.650;2023-02-15T02:54:28;349.98;;;65.25;;
46377;SDS011;32083;47.360;9.650;2023-02-15T02:56:56;206.48;;;46.08;;
46377;SDS011;32083;47.360;9.650;2023-02-15T02:59:30;180.70;;;37.88;;
46377;SDS011;32083;47.360;9.650;2023-02-15T03:05:02;261.27;;;46.28;;
46377;SDS011;32083;47.360;9.650;2023-02-15T03:07:37;62.53;;;25.35;;
46377;SDS011;32083;47.360;9.650;2023-02-15T03:10:13;280.35;;;48.95;;
46377;SDS011;32083;47.360;9.650;2023-02-15T03:12:40;421.83;;;67.72;;
46377;SDS011;32083;47.360;9.650;2023-02-15T03:17:41;259.75;;;50.58;;
46377;SDS011;32083;47.360;9.650;2023-02-15T03:20:11;297.67;;;54.63;;
46377;SDS011;32083;47.360;9.650;2023-02-15T03:22:46;246.65;;;43.78;;
46377;SDS011;32083;47.360;9.650;2023-02-15T03:25:21;228.20;;;43.00;;
46377;SDS011;32083;47.360;9.650;2023-02-15T03:28:20;315.15;;;56.42;;
46377;SDS011;32083;47.360;9.650;2023-02-15T03:31:10;136.00;;;34.70;;
46377;SDS011;32083;47.360;9.650;2023-02-15T03:33:46;253.15;;;47.65;;
46377;SDS011;32083;47.360;9.650;2023-02-15T03:39:11;99.85;;;31.30;;
46377;SDS011;32083;47.360;9.650;2023-02-15T03:41:54;130.02;;;31.90;;
46377;SDS011;32083;47.360;9.650;2023-02-15T03:47:43;376.60;;;56.33;;
46377;SDS011;32083;47.360;9.650;2023-02-15T03:50:31;319.75;;;52.30;;
46377;SDS011;32083;47.360;9.650;2023-02-15T03:53:19;229.13;;;41.72;;
46377;SDS011;32083;47.360;9.650;2023-02-15T03:55:54;364.25;;;58.65;;
46377;SDS011;32083;47.360;9.650;2023-02-15T03:58:22;152.05;;;31.42;;
46377;SDS011;32083;47.360;9.650;2023-02-15T04:01:26;371.55;;;56.80;;
46377;SDS011;32083;47.360;9.650;2023-02-15T04:04:26;51.13;;;24.50;;
46377;SDS011;32083;47.360;9.650;2023-02-15T04:07:00;186.45;;;37.33;;
46377;SDS011;32083;47.360;9.650;2023-02-15T04:09:49;168.07;;;36.22;;
46377;SDS011;32083;47.360;9.650;2023-02-15T04:12:36;275.58;;;43.03;;
46377;SDS011;32083;47.360;9.650;2023-02-15T04:15:08;112.28;;;32.35;;
46377;SDS011;32083;47.360;9.650;2023-02-15T04:17:55;99.38;;;29.42;;
46377;SDS011;32083;47.360;9.650;2023-02-15T04:20:23;54.63;;;24.13;;
46377;SDS011;32083;47.360;9.650;2023-02-15T04:23:09;307.35;;;52.28;;
46377;SDS011;32083;47.360;9.650;2023-02-15T04:25:53;251.80;;;49.72;;
46377;SDS011;32083;47.360;9.650;2023-02-15T04:28:22;189.35;;;40.03;;
46377;SDS011;32083;47.360;9.650;2023-02-15T04:30:48;149.30;;;37.30;;
46377;SDS011;32083;47.360;9.650;2023-02-15T04:33:15;227.93;;;41.08;;
46377;SDS011;32083;47.360;9.650;2023-02-15T04:35:42;77.35;;;26.67;;
46377;SDS011;32083;47.360;9.650;2023-02-15T04:38:10;63.10;;;25.90;;
46377;SDS011;32083;47.360;9.650;2023-02-15T04:40:41;115.90;;;29.20;;
46377;SDS011;32083;47.360;9.650;2023-02-15T04:43:08;232.98;;;43.10;;
46377;SDS011;32083;47.360;9.650;2023-02-15T04:45:34;62.88;;;24.88;;
46377;SDS011;32083;47.360;9.650;2023-02-15T04:48:23;208.30;;;43.28;;
46377;SDS011;32083;47.360;9.650;2023-02-15T04:50:52;102.88;;;29.08;;
46377;SDS011;32083;47.360;9.650;2023-02-15T04:53:18;73.97;;;25.88;;
46377;SDS011;32083;47.360;9.650;2023-02-15T04:55:44;57.55;;;24.02;;
46377;SDS011;32083;47.360;9.650;2023-02-15T04:58:10;172.95;;;32.88;;
46377;SDS011;32083;47.360;9.650;2023-02-15T05:00:38;144.05;;;34.80;;
46377;SDS011;32083;47.360;9.650;2023-02-15T05:03:14;148.63;;;36.22;;
46377;SDS011;32083;47.360;9.650;2023-02-15T05:05:43;105.38;;;33.30;;
46377;SDS011;32083;47.360;9.650;2023-02-15T05:08:12;97.38;;;32.05;;
46377;SDS011;32083;47.360;9.650;2023-02-15T05:10:39;158.40;;;36.15;;
46377;SDS011;32083;47.360;9.650;2023-02-15T05:13:06;120.03;;;34.13;;
46377;SDS011;32083;47.360;9.650;2023-02-15T05:15:34;125.85;;;36.13;;
46377;SDS011;32083;47.360;9.650;2023-02-15T05:18:01;104.35;;;32.17;;
46377;SDS011;32083;47.360;9.650;2023-02-15T05:20:28;185.35;;;37.67;;
46377;SDS011;32083;47.360;9.650;2023-02-15T05:22:55;133.93;;;35.55;;
46377;SDS011;32083;47.360;9.650;2023-02-15T05:25:24;115.82;;;31.40;;
46377;SDS011;32083;47.360;9.650;2023-02-15T05:28:13;166.02;;;33.53;;
46377;SDS011;32083;47.360;9.650;2023-02-15T05:30:59;122.07;;;33.05;;
46377;SDS011;32083;47.360;9.650;2023-02-15T05:33:42;84.60;;;27.55;;
46377;SDS011;32083;47.360;9.650;2023-02-15T05:36:11;57.72;;;24.42;;
46377;SDS011;32083;47.360;9.650;2023-02-15T05:38:39;106.57;;;33.03;;
46377;SDS011;32083;47.360;9.650;2023-02-15T05:41:05;63.85;;;27.45;;
46377;SDS011;32083;47.360;9.650;2023-02-15T05:43:33;97.20;;;29.20;;
46377;SDS011;32083;47.360;9.650;2023-02-15T05:46:00;109.97;;;32.42;;
46377;SDS011;32083;47.360;9.650;2023-02-15T05:48:31;106.15;;;31.80;;
46377;SDS011;32083;47.360;9.650;2023-02-15T05:51:06;56.13;;;24.25;;
46377;SDS011;32083;47.360;9.650;2023-02-15T05:53:38;113.20;;;32.42;;
46377;SDS011;32083;47.360;9.650;2023-02-15T05:56:05;136.55;;;29.88;;
46377;SDS011;32083;47.360;9.650;2023-02-15T05:58:38;88.07;;;27.92;;
46377;SDS011;32083;47.360;9.650;2023-02-15T06:01:14;115.63;;;31.27;;
46377;SDS011;32083;47.360;9.650;2023-02-15T06:03:43;55.70;;;22.90;;
46377;SDS011;32083;47.360;9.650;2023-02-15T06:06:13;84.88;;;24.55;;
46377;SDS011;32083;47.360;9.650;2023-02-15T06:08:39;85.45;;;27.15;;
46377;SDS011;32083;47.360;9.650;2023-02-15T06:11:05;43.42;;;20.92;;
46377;SDS011;32083;47.360;9.650;2023-02-15T06:13:35;95.40;;;28.98;;
46377;SDS011;32083;47.360;9.650;2023-02-15T06:16:01;53.10;;;23.98;;
46377;SDS011;32083;47.360;9.650;2023-02-15T06:18:29;59.10;;;26.23;;
46377;SDS011;32083;47.360;9.650;2023-02-15T06:21:14;51.30;;;22.40;;
46377;SDS011;32083;47.360;9.650;2023-02-15T06:23:40;95.38;;;29.80;;
46377;SDS011;32083;47.360;9.650;2023-02-15T06:26:06;43.00;;;22.48;;
46377;SDS011;32083;47.360;9.650;2023-02-15T06:28:35;58.22;;;24.52;;
46377;SDS011;32083;47.360;9.650;2023-02-15T06:31:02;44.58;;;21.98;;
46377;SDS011;32083;47.360;9.650;2023-02-15T06:33:35;59.45;;;22.13;;
46377;SDS011;32083;47.360;9.650;2023-02-15T06:36:14;61.35;;;24.30;;
46377;SDS011;32083;47.360;9.650;2023-02-15T06:38:40;52.38;;;23.13;;
46377;SDS011;32083;47.360;9.650;2023-02-15T06:41:10;51.33;;;21.25;;
46377;SDS011;32083;47.360;9.650;2023-02-15T06:43:36;56.45;;;24.17;;
46377;SDS011;32083;47.360;9.650;2023-02-15T06:46:05;43.10;;;21.35;;
46377;SDS011;32083;47.360;9.650;2023-02-15T06:48:32;49.00;;;21.60;;
46377;SDS011;32083;47.360;9.650;2023-02-15T06:51:02;69.30;;;23.92;;
46377;SDS011;32083;47.360;9.650;2023-02-15T06:53:31;69.90;;;24.73;;
46377;SDS011;32083;47.360;9.650;2023-02-15T06:56:06;58.47;;;22.30;;
46377;SDS011;32083;47.360;9.650;2023-02-15T06:58:35;66.00;;;22.35;;
46377;SDS011;32083;47.360;9.650;2023-02-15T07:01:12;52.30;;;19.75;;
46377;SDS011;32083;47.360;9.650;2023-02-15T07:03:39;55.45;;;21.95;;
46377;SDS011;32083;47.360;9.650;2023-02-15T07:06:05;71.07;;;25.02;;
46377;SDS011;32083;47.360;9.650;2023-02-15T07:08:33;44.17;;;20.33;;
46377;SDS011;32083;47.360;9.650;2023-02-15T07:11:00;47.08;;;21.70;;
46377;SDS011;32083;47.360;9.650;2023-02-15T07:14:03;62.03;;;21.70;;
46377;SDS011;32083;47.360;9.650;2023-02-15T07:16:31;39.53;;;17.83;;
46377;SDS011;32083;47.360;9.650;2023-02-15T07:19:02;44.88;;;20.30;;
46377;SDS011;32083;47.360;9.650;2023-02-15T07:21:39;32.30;;;16.50;;
46377;SDS011;32083;47.360;9.650;2023-02-15T07:24:05;59.42;;;21.33;;
46377;SDS011;32083;47.360;9.650;2023-02-15T07:26:31;59.38;;;19.95;;
46377;SDS011;32083;47.360;9.650;2023-02-15T07:28:57;166.80;;;33.28;;
46377;SDS011;32083;47.360;9.650;2023-02-15T07:31:24;25.52;;;15.75;;
46377;SDS011;32083;47.360;9.650;2023-02-15T07:33:50;89.55;;;24.90;;
46377;SDS011;32083;47.360;9.650;2023-02-15T07:36:15;139.30;;;27.27;;
46377;SDS011;32083;47.360;9.650;2023-02-15T07:38:41;132.43;;;26.83;;
46377;SDS011;32083;47.360;9.650;2023-02-15T07:41:08;164.60;;;33.28;;
46377;SDS011;32083;47.360;9.650;2023-02-15T07:43:37;49.90;;;22.02;;
46377;SDS011;32083;47.360;9.650;2023-02-15T07:46:06;50.03;;;21.85;;
46377;SDS011;32083;47.360;9.650;2023-02-15T07:48:34;41.92;;;19.58;;
46377;SDS011;32083;47.360;9.650;2023-02-15T07:51:01;50.00;;;20.08;;
46377;SDS011;32083;47.360;9.650;2023-02-15T07:53:28;166.55;;;32.42;;
46377;SDS011;32083;47.360;9.650;2023-02-15T07:55:58;146.82;;;28.08;;
46377;SDS011;32083;47.360;9.650;2023-02-15T07:58:24;53.75;;;22.33;;
46377;SDS011;32083;47.360;9.650;2023-02-15T08:01:10;61.00;;;21.92;;
46377;SDS011;32083;47.360;9.650;2023-02-15T08:03:36;35.03;;;18.40;;
46377;SDS011;32083;47.360;9.650;2023-02-15T08:06:02;26.73;;;16.42;;
46377;SDS011;32083;47.360;9.650;2023-02-15T08:08:28;50.35;;;21.38;;
46377;SDS011;32083;47.360;9.650;2023-02-15T08:11:37;139.05;;;27.98;;
46377;SDS011;32083;47.360;9.650;2023-02-15T08:13:57;89.57;;;21.20;;
46377;SDS011;32083;47.360;9.650;2023-02-15T08:16:30;134.13;;;27.25;;
46377;SDS011;32083;47.360;9.650;2023-02-15T08:19:08;31.02;;;15.55;;
46377;SDS011;32083;47.360;9.650;2023-02-15T08:21:35;30.25;;;16.08;;
46377;SDS011;32083;47.360;9.650;2023-02-15T08:24:03;113.43;;;25.10;;
46377;SDS011;32083;47.360;9.650;2023-02-15T08:26:30;70.82;;;26.50;;
46377;SDS011;32083;47.360;9.650;2023-02-15T08:28:57;41.60;;;21.02;;
46377;SDS011;32083;47.360;9.650;2023-02-15T08:31:24;48.08;;;18.48;;
46377;SDS011;32083;47.360;9.650;2023-02-15T08:33:51;96.75;;;24.52;;
46377;SDS011;32083;47.360;9.650;2023-02-15T08:36:20;37.15;;;17.30;;
46377;SDS011;32083;47.360;9.650;2023-02-15T08:38:48;39.28;;;17.23;;
46377;SDS011;32083;47.360;9.650;2023-02-15T08:43:42;36.13;;;17.13;;
46377;SDS011;32083;47.360;9.650;2023-02-15T08:46:09;106.22;;;26.27;;
46377;SDS011;32083;47.360;9.650;2023-02-15T08:48:36;39.47;;;15.52;;
46377;SDS011;32083;47.360;9.650;2023-02-15T08:51:12;32.33;;;16.13;;
46377;SDS011;32083;47.360;9.650;2023-02-15T08:53:44;52.72;;;19.77;;
46377;SDS011;32083;47.360;9.650;2023-02-15T08:56:16;86.10;;;22.27;;
46377;SDS011;32083;47.360;9.650;2023-02-15T08:58:43;158.40;;;30.75;;
46377;SDS011;32083;47.360;9.650;2023-02-15T09:01:13;78.85;;;22.98;;
46377;SDS011;32083;47.360;9.650;2023-02-15T09:03:43;79.25;;;23.27;;
46377;SDS011;32083;47.360;9.650;2023-02-15T09:06:09;66.97;;;24.48;;
46377;SDS011;32083;47.360;9.650;2023-02-15T09:08:36;117.70;;;28.20;;
46377;SDS011;32083;47.360;9.650;2023-02-15T09:11:12;86.10;;;25.60;;
46377;SDS011;32083;47.360;9.650;2023-02-15T09:13:51;184.02;;;36.00;;
46377;SDS011;32083;47.360;9.650;2023-02-15T09:16:30;62.15;;;22.15;;
46377;SDS011;32083;47.360;9.650;2023-02-15T09:18:58;203.52;;;35.45;;
46377;SDS011;32083;47.360;9.650;2023-02-15T09:21:26;149.45;;;33.42;;
46377;SDS011;32083;47.360;9.650;2023-02-15T09:23:57;128.23;;;33.22;;
46377;SDS011;32083;47.360;9.650;2023-02-15T09:26:25;204.55;;;37.08;;
46377;SDS011;32083;47.360;9.650;2023-02-15T09:28:53;61.05;;;23.45;;
46377;SDS011;32083;47.360;9.650;2023-02-15T09:31:22;60.42;;;22.92;;
46377;SDS011;32083;47.360;9.650;2023-02-15T09:33:49;313.95;;;43.92;;
46377;SDS011;32083;47.360;9.650;2023-02-15T09:36:22;127.22;;;32.22;;
46377;SDS011;32083;47.360;9.650;2023-02-15T09:38:57;54.67;;;21.50;;
46377;SDS011;32083;47.360;9.650;2023-02-15T09:50:21;207.65;;;36.47;;
46377;SDS011;32083;47.360;9.650;2023-02-15T10:14:43;39.60;;;23.02;;
46377;SDS011;32083;47.360;9.650;2023-02-15T10:20:36;27.77;;;17.35;;
46377;SDS011;32083;47.360;9.650;2023-02-15T10:26:13;48.67;;;23.17;;
46377;SDS011;32083;47.360;9.650;2023-02-15T10:28:54;50.35;;;23.67;;
46377;SDS011;32083;47.360;9.650;2023-02-15T10:31:44;36.80;;;20.90;;
46377;SDS011;32083;47.360;9.650;2023-02-15T10:39:39;38.42;;;23.30;;
46377;SDS011;32083;47.360;9.650;2023-02-15T10:42:16;43.17;;;22.52;;
46377;SDS011;32083;47.360;9.650;2023-02-15T10:45:03;37.35;;;20.95;;
46377;SDS011;32083;47.360;9.650;2023-02-15T10:47:41;35.25;;;19.90;;
46377;SDS011;32083;47.360;9.650;2023-02-15T10:50:36;44.38;;;22.95;;
46377;SDS011;32083;47.360;9.650;2023-02-15T10:58:43;34.78;;;20.85;;
46377;SDS011;32083;47.360;9.650;2023-02-15T11:01:50;44.42;;;21.60;;
46377;SDS011;32083;47.360;9.650;2023-02-15T11:06:55;50.03;;;24.13;;
46377;SDS011;32083;47.360;9.650;2023-02-15T11:09:25;41.15;;;22.58;;
46377;SDS011;32083;47.360;9.650;2023-02-15T11:12:00;36.45;;;21.05;;
46377;SDS011;32083;47.360;9.650;2023-02-15T11:17:04;53.08;;;24.23;;
46377;SDS011;32083;47.360;9.650;2023-02-15T11:19:35;31.73;;;19.58;;
46377;SDS011;32083;47.360;9.650;2023-02-15T11:22:06;43.05;;;22.83;;
46377;SDS011;32083;47.360;9.650;2023-02-15T11:24:42;34.40;;;20.45;;
46377;SDS011;32083;47.360;9.650;2023-02-15T11:27:20;44.00;;;22.70;;
46377;SDS011;32083;47.360;9.650;2023-02-15T11:32:28;30.92;;;20.80;;
46377;SDS011;32083;47.360;9.650;2023-02-15T11:35:10;30.48;;;18.45;;
46377;SDS011;32083;47.360;9.650;2023-02-15T11:38:20;35.08;;;19.00;;
46377;SDS011;32083;47.360;9.650;2023-02-15T11:40:49;33.15;;;21.35;;
46377;SDS011;32083;47.360;9.650;2023-02-15T11:46:11;35.80;;;21.42;;
46377;SDS011;32083;47.360;9.650;2023-02-15T11:48:38;39.25;;;23.60;;
46377;SDS011;32083;47.360;9.650;2023-02-15T11:51:04;38.50;;;23.27;;
46377;SDS011;32083;47.360;9.650;2023-02-15T11:53:35;38.97;;;22.67;;
46377;SDS011;32083;47.360;9.650;2023-02-15T11:56:02;36.25;;;24.00;;
46377;SDS011;32083;47.360;9.650;2023-02-15T11:58:44;31.00;;;20.40;;
46377;SDS011;32083;47.360;9.650;2023-02-15T12:01:16;31.40;;;21.20;;
46377;SDS011;32083;47.360;9.650;2023-02-15T12:06:44;35.28;;;24.02;;
46377;SDS011;32083;47.360;9.650;2023-02-15T12:12:36;26.13;;;17.50;;
46377;SDS011;32083;47.360;9.650;2023-02-15T12:15:07;26.88;;;17.60;;
46377;SDS011;32083;47.360;9.650;2023-02-15T12:17:38;29.58;;;18.70;;
46377;SDS011;32083;47.360;9.650;2023-02-15T12:22:49;29.88;;;19.55;;
46377;SDS011;32083;47.360;9.650;2023-02-15T12:25:37;26.58;;;18.67;;
46377;SDS011;32083;47.360;9.650;2023-02-15T12:28:40;25.67;;;18.25;;
46377;SDS011;32083;47.360;9.650;2023-02-15T12:31:18;34.33;;;22.00;;
46377;SDS011;32083;47.360;9.650;2023-02-15T12:33:50;29.95;;;20.52;;
46377;SDS011;32083;47.360;9.650;2023-02-15T12:36:29;36.08;;;18.95;;
46377;SDS011;32083;47.360;9.650;2023-02-15T12:44:20;32.95;;;20.70;;
46377;SDS011;32083;47.360;9.650;2023-02-15T12:49:23;26.73;;;18.20;;
46377;SDS011;32083;47.360;9.650;2023-02-15T12:51:51;27.67;;;19.88;;
46377;SDS011;32083;47.360;9.650;2023-02-15T12:59:57;29.92;;;19.83;;
46377;SDS011;32083;47.360;9.650;2023-02-15T13:02:28;30.00;;;20.63;;
46377;SDS011;32083;47.360;9.650;2023-02-15T13:07:56;29.17;;;20.35;;
46377;SDS011;32083;47.360;9.650;2023-02-15T13:10:28;31.75;;;21.20;;
46377;SDS011;32083;47.360;9.650;2023-02-15T13:12:56;35.17;;;21.05;;
46377;SDS011;32083;47.360;9.650;2023-02-15T13:15:31;27.65;;;20.05;;
46377;SDS011;32083;47.360;9.650;2023-02-15T13:18:03;33.53;;;21.80;;
46377;SDS011;32083;47.360;9.650;2023-02-15T13:20:31;30.52;;;22.08;;
46377;SDS011;32083;47.360;9.650;2023-02-15T13:23:01;31.02;;;22.15;;
46377;SDS011;32083;47.360;9.650;2023-02-15T13:25:32;33.80;;;23.40;;
46377;SDS011;32083;47.360;9.650;2023-02-15T13:28:05;28.45;;;20.90;;
46377;SDS011;32083;47.360;9.650;2023-02-15T13:30:36;30.52;;;20.67;;
46377;SDS011;32083;47.360;9.650;2023-02-15T13:41:03;37.08;;;20.63;;
46377;SDS011;32083;47.360;9.650;2023-02-15T13:43:50;31.08;;;19.85;;
46377;SDS011;32083;47.360;9.650;2023-02-15T13:49:37;30.67;;;20.13;;
46377;SDS011;32083;47.360;9.650;2023-02-15T13:52:21;31.92;;;22.02;;
46377;SDS011;32083;47.360;9.650;2023-02-15T13:58:02;32.70;;;21.08;;
46377;SDS011;32083;47.360;9.650;2023-02-15T14:01:05;27.63;;;20.60;;
46377;SDS011;32083;47.360;9.650;2023-02-15T14:14:39;25.45;;;18.50;;
46377;SDS011;32083;47.360;9.650;2023-02-15T14:17:29;33.58;;;19.17;;
46377;SDS011;32083;47.360;9.650;2023-02-15T14:23:10;41.97;;;22.08;;
46377;SDS011;32083;47.360;9.650;2023-02-15T14:25:58;33.95;;;20.85;;
46377;SDS011;32083;47.360;9.650;2023-02-15T14:31:17;29.70;;;19.65;;
46377;SDS011;32083;47.360;9.650;2023-02-15T14:33:50;30.80;;;20.58;;
46377;SDS011;32083;47.360;9.650;2023-02-15T14:36:20;28.35;;;20.75;;
46377;SDS011;32083;47.360;9.650;2023-02-15T14:42:15;33.85;;;21.38;;
46377;SDS011;32083;47.360;9.650;2023-02-15T14:44:45;29.25;;;19.88;;
46377;SDS011;32083;47.360;9.650;2023-02-15T14:47:36;35.75;;;21.67;;
46377;SDS011;32083;47.360;9.650;2023-02-15T14:59:00;27.73;;;20.00;;
46377;SDS011;32083;47.360;9.650;2023-02-15T15:01:30;31.60;;;19.95;;
46377;SDS011;32083;47.360;9.650;2023-02-15T15:03:59;32.42;;;20.98;;
46377;SDS011;32083;47.360;9.650;2023-02-15T15:07:01;28.88;;;20.25;;
46377;SDS011;32083;47.360;9.650;2023-02-15T15:09:37;34.85;;;21.42;;
46377;SDS011;32083;47.360;9.650;2023-02-15T15:14:46;29.90;;;19.98;;
46377;SDS011;32083;47.360;9.650;2023-02-15T15:19:58;31.02;;;19.83;;
46377;SDS011;32083;47.360;9.650;2023-02-15T15:22:29;29.95;;;20.30;;
46377;SDS011;32083;47.360;9.650;2023-02-15T15:24:57;33.00;;;22.10;;
46377;SDS011;32083;47.360;9.650;2023-02-15T15:32:40;26.30;;;19.35;;
46377;SDS011;32083;47.360;9.650;2023-02-15T15:43:30;35.08;;;22.10;;
46377;SDS011;32083;47.360;9.650;2023-02-15T15:46:20;30.65;;;20.75;;
46377;SDS011;32083;47.360;9.650;2023-02-15T15:49:02;29.20;;;20.38;;
46377;SDS011;32083;47.360;9.650;2023-02-15T15:51:39;31.30;;;22.08;;
46377;SDS011;32083;47.360;9.650;2023-02-15T15:54:11;30.27;;;21.83;;
46377;SDS011;32083;47.360;9.650;2023-02-15T15:56:49;29.25;;;21.10;;
46377;SDS011;32083;47.360;9.650;2023-02-15T15:59:26;33.05;;;21.50;;
46377;SDS011;32083;47.360;9.650;2023-02-15T16:01:56;31.05;;;20.45;;
46377;SDS011;32083;47.360;9.650;2023-02-15T16:06:58;31.02;;;20.63;;
46377;SDS011;32083;47.360;9.650;2023-02-15T16:10:04;31.60;;;23.10;;
46377;SDS011;32083;47.360;9.650;2023-02-15T16:12:33;37.75;;;21.75;;
46377;SDS011;32083;47.360;9.650;2023-02-15T16:15:01;32.78;;;21.50;;
46377;SDS011;32083;47.360;9.650;2023-02-15T16:17:36;30.42;;;21.38;;
46377;SDS011;32083;47.360;9.650;2023-02-15T16:20:16;30.55;;;20.15;;
46377;SDS011;32083;47.360;9.650;2023-02-15T16:22:47;29.48;;;21.00;;
46377;SDS011;32083;47.360;9.650;2023-02-15T16:28:12;31.80;;;19.92;;
46377;SDS011;32083;47.360;9.650;2023-02-15T16:30:40;31.83;;;21.15;;
46377;SDS011;32083;47.360;9.650;2023-02-15T16:33:17;31.08;;;22.38;;
46377;SDS011;32083;47.360;9.650;2023-02-15T16:39:12;31.55;;;21.17;;
46377;SDS011;32083;47.360;9.650;2023-02-15T16:41:14;26.85;;;19.42;;
46377;SDS011;32083;47.360;9.650;2023-02-15T16:43:49;37.13;;;22.50;;
46377;SDS011;32083;47.360;9.650;2023-02-15T16:46:16;35.33;;;22.33;;
46377;SDS011;32083;47.360;9.650;2023-02-15T16:48:49;40.80;;;27.00;;
46377;SDS011;32083;47.360;9.650;2023-02-15T16:51:19;40.42;;;27.50;;
46377;SDS011;32083;47.360;9.650;2023-02-15T16:53:47;46.50;;;32.00;;
46377;SDS011;32083;47.360;9.650;2023-02-15T16:56:14;36.47;;;26.50;;
46377;SDS011;32083;47.360;9.650;2023-02-15T16:58:42;35.60;;;23.30;;
46377;SDS011;32083;47.360;9.650;2023-02-15T17:01:10;34.47;;;25.40;;
46377;SDS011;32083;47.360;9.650;2023-02-15T17:03:38;43.40;;;29.80;;
46377;SDS011;32083;47.360;9.650;2023-02-15T17:06:17;35.95;;;25.05;;
46377;SDS011;32083;47.360;9.650;2023-02-15T17:08:48;34.60;;;24.33;;
46377;SDS011;32083;47.360;9.650;2023-02-15T17:11:33;34.42;;;24.42;;
46377;SDS011;32083;47.360;9.650;2023-02-15T17:17:13;30.58;;;23.55;;
46377;SDS011;32083;47.360;9.650;2023-02-15T17:19:47;37.60;;;25.80;;
46377;SDS011;32083;47.360;9.650;2023-02-15T17:22:21;33.45;;;24.00;;
46377;SDS011;32083;47.360;9.650;2023-02-15T17:24:58;32.15;;;23.20;;
46377;SDS011;32083;47.360;9.650;2023-02-15T17:27:28;32.25;;;23.83;;
46377;SDS011;32083;47.360;9.650;2023-02-15T17:30:01;34.72;;;23.42;;
46377;SDS011;32083;47.360;9.650;2023-02-15T17:32:52;34.97;;;24.65;;
46377;SDS011;32083;47.360;9.650;2023-02-15T17:35:21;37.03;;;25.50;;
46377;SDS011;32083;47.360;9.650;2023-02-15T17:37:49;35.13;;;24.67;;
46377;SDS011;32083;47.360;9.650;2023-02-15T17:40:26;39.00;;;25.92;;
46377;SDS011;32083;47.360;9.650;2023-02-15T17:42:54;33.28;;;24.83;;
46377;SDS011;32083;47.360;9.650;2023-02-15T17:45:21;34.97;;;23.63;;
46377;SDS011;32083;47.360;9.650;2023-02-15T17:47:50;31.80;;;22.38;;
46377;SDS011;32083;47.360;9.650;2023-02-15T17:50:20;34.53;;;23.80;;
46377;SDS011;32083;47.360;9.650;2023-02-15T17:52:47;36.55;;;23.77;;
46377;SDS011;32083;47.360;9.650;2023-02-15T17:55:15;36.60;;;25.45;;
46377;SDS011;32083;47.360;9.650;2023-02-15T17:57:59;38.22;;;24.60;;
46377;SDS011;32083;47.360;9.650;2023-02-15T18:00:29;35.13;;;23.30;;
46377;SDS011;32083;47.360;9.650;2023-02-15T18:03:15;39.13;;;25.80;;
46377;SDS011;32083;47.360;9.650;2023-02-15T18:06:00;36.75;;;23.92;;